sensor_id;sensor_type;location;lat;lon;timestamp;temperature;humidity
19781;DHT22;10050;55.492;13.506;2023-08-07T00:00:29;13.90;99.90
19781;DHT22;10050;55.492;13.506;2023-08-07T00:02:55;14.00;99.90
19781;DHT22;10050;55.492;13.506;2023-08-07T00:05:23;14.00;99.90
19781;DHT22;10050;55.492;13.506;2023-08-07T00:07:49;14.00;99.90
19781;DHT22;10050;55.492;13.506;2023-08-07T00:10:14;14.00;99.90
19781;DHT22;10050;55.492;13.506;2023-08-07T00:12:40;14.00;99.90
19781;DHT22;10050;55.492;13.506;2023-08-07T00:15:07;14.00;99.90
19781;DHT22;10050;55.492;13.506;2023-08-07T00:17:32;14.00;99.90
19781;DHT22;10050;55.492;13.506;2023-08-07T00:19:58;14.00;99.90
19781;DHT22;10050;55.492;13.506;2023-08-07T00:22:24;14.00;99.90
19781;DHT22;10050;55.492;13.506;2023-08-07T00:24:50;14.00;99.90
19781;DHT22;10050;55.492;13.506;2023-08-07T00:27:19;14.00;99.90
19781;DHT22;10050;55.492;13.506;2023-08-07T00:29:45;14.10;99.90
19781;DHT22;10050;55.492;13.506;2023-08-07T00:32:12;14.00;99.90
19781;DHT22;10050;55.492;13.506;2023-08-07T00:34:38;14.00;99.90
19781;DHT22;10050;55.492;13.506;2023-08-07T00:37:09;14.00;99.90
19781;DHT22;10050;55.492;13.506;2023-08-07T00:39:43;14.00;99.90
19781;DHT22;10050;55.492;13.506;2023-08-07T00:42:11;14.10;99.90
19781;DHT22;10050;55.492;13.506;2023-08-07T00:44:36;14.10;99.90
19781;DHT22;10050;55.492;13.506;2023-08-07T00:47:02;14.10;99.90
19781;DHT22;10050;55.492;13.506;2023-08-07T00:49:31;14.00;99.90
19781;DHT22;10050;55.492;13.506;2023-08-07T00:52:00;14.00;99.90
19781;DHT22;10050;55.492;13.506;2023-08-07T00:54:28;14.10;99.90
19781;DHT22;10050;55.492;13.506;2023-08-07T00:56:54;14.00;99.90
19781;DHT22;10050;55.492;13.506;2023-08-07T00:59:20;14.10;99.90
19781;DHT22;10050;55.492;13.506;2023-08-07T01:01:46;14.10;99.90
19781;DHT22;10050;55.492;13.506;2023-08-07T01:04:14;14.10;99.90
19781;DHT22;10050;55.492;13.506;2023-08-07T01:06:40;14.10;99.90
19781;DHT22;10050;55.492;13.506;2023-08-07T01:09:06;14.10;99.90
19781;DHT22;10050;55.492;13.506;2023-08-07T01:11:36;14.10;99.90
19781;DHT22;10050;55.492;13.506;2023-08-07T01:14:13;14.10;99.90
19781;DHT22;10050;55.492;13.506;2023-08-07T01:19:31;14.10;99.90
19781;DHT22;10050;55.492;13.506;2023-08-07T01:22:17;14.10;99.90
19781;DHT22;10050;55.492;13.506;2023-08-07T01:24:54;14.10;99.90
19781;DHT22;10050;55.492;13.506;2023-08-07T01:27:27;14.10;99.90
19781;DHT22;10050;55.492;13.506;2023-08-07T01:30:19;14.10;99.90
19781;DHT22;10050;55.492;13.506;2023-08-07T01:35:56;14.10;99.90
19781;DHT22;10050;55.492;13.506;2023-08-07T01:38:27;14.10;99.90
19781;DHT22;10050;55.492;13.506;2023-08-07T01:40:54;14.10;99.90
19781;DHT22;10050;55.492;13.506;2023-08-07T01:43:23;14.10;99.90
19781;DHT22;10050;55.492;13.506;2023-08-07T01:46:04;14.10;99.90
19781;DHT22;10050;55.492;13.506;2023-08-07T01:48:33;14.10;99.90
19781;DHT22;10050;55.492;13.506;2023-08-07T01:51:03;14.10;99.90
19781;DHT22;10050;55.492;13.506;2023-08-07T01:53:28;14.10;99.90
19781;DHT22;10050;55.492;13.506;2023-08-07T01:55:54;14.10;99.90
19781;DHT22;10050;55.492;13.506;2023-08-07T01:58:21;14.10;99.90
19781;DHT22;10050;55.492;13.506;2023-08-07T02:00:47;14.10;99.90
19781;DHT22;10050;55.492;13.506;2023-08-07T02:03:14;14.10;99.90
19781;DHT22;10050;55.492;13.506;2023-08-07T02:05:40;14.10;99.90
19781;DHT22;10050;55.492;13.506;2023-08-07T02:08:06;14.10;99.90
19781;DHT22;10050;55.492;13.506;2023-08-07T02:10:32;14.10;99.90
19781;DHT22;10050;55.492;13.506;2023-08-07T02:12:58;14.20;99.90
19781;DHT22;10050;55.492;13.506;2023-08-07T02:15:28;14.20;99.90
19781;DHT22;10050;55.492;13.506;2023-08-07T02:17:54;14.20;99.90
19781;DHT22;10050;55.492;13.506;2023-08-07T02:20:20;14.20;99.90
19781;DHT22;10050;55.492;13.506;2023-08-07T02:22:46;14.20;99.90
19781;DHT22;10050;55.492;13.506;2023-08-07T02:25:13;14.20;99.90
19781;DHT22;10050;55.492;13.506;2023-08-07T02:27:39;14.20;99.90
19781;DHT22;10050;55.492;13.506;2023-08-07T02:30:05;14.20;99.90
19781;DHT22;10050;55.492;13.506;2023-08-07T02:32:31;14.20;99.90
19781;DHT22;10050;55.492;13.506;2023-08-07T02:34:57;14.20;99.90
19781;DHT22;10050;55.492;13.506;2023-08-07T02:37:23;14.20;99.90
19781;DHT22;10050;55.492;13.506;2023-08-07T02:39:49;14.20;99.90
19781;DHT22;10050;55.492;13.506;2023-08-07T02:42:15;14.30;99.90
19781;DHT22;10050;55.492;13.506;2023-08-07T02:44:46;14.20;99.90
19781;DHT22;10050;55.492;13.506;2023-08-07T02:47:16;14.30;99.90
19781;DHT22;10050;55.492;13.506;2023-08-07T02:49:43;14.20;99.90
19781;DHT22;10050;55.492;13.506;2023-08-07T02:52:15;14.30;99.90
19781;DHT22;10050;55.492;13.506;2023-08-07T02:54:42;14.20;99.90
19781;DHT22;10050;55.492;13.506;2023-08-07T02:57:10;14.20;99.90
19781;DHT22;10050;55.492;13.506;2023-08-07T02:59:36;14.20;99.90
19781;DHT22;10050;55.492;13.506;2023-08-07T03:02:05;14.20;99.90
19781;DHT22;10050;55.492;13.506;2023-08-07T03:04:31;14.20;99.90
19781;DHT22;10050;55.492;13.506;2023-08-07T03:06:56;14.20;99.90
19781;DHT22;10050;55.492;13.506;2023-08-07T03:09:22;14.20;99.90
19781;DHT22;10050;55.492;13.506;2023-08-07T03:11:49;14.30;99.90
19781;DHT22;10050;55.492;13.506;2023-08-07T03:14:19;14.30;99.90
19781;DHT22;10050;55.492;13.506;2023-08-07T03:16:48;14.30;99.90
19781;DHT22;10050;55.492;13.506;2023-08-07T03:19:16;14.30;99.90
19781;DHT22;10050;55.492;13.506;2023-08-07T03:21:49;14.30;99.90
19781;DHT22;10050;55.492;13.506;2023-08-07T03:24:15;14.30;99.90
19781;DHT22;10050;55.492;13.506;2023-08-07T03:26:41;14.40;99.90
19781;DHT22;10050;55.492;13.506;2023-08-07T03:29:06;14.40;99.90
19781;DHT22;10050;55.492;13.506;2023-08-07T03:31:32;14.40;99.90
19781;DHT22;10050;55.492;13.506;2023-08-07T03:33:58;14.40;99.90
19781;DHT22;10050;55.492;13.506;2023-08-07T03:36:24;14.40;99.90
19781;DHT22;10050;55.492;13.506;2023-08-07T03:38:52;14.40;99.90
19781;DHT22;10050;55.492;13.506;2023-08-07T03:41:19;14.40;99.90
19781;DHT22;10050;55.492;13.506;2023-08-07T03:43:50;14.40;99.90
19781;DHT22;10050;55.492;13.506;2023-08-07T03:46:18;14.40;99.90
19781;DHT22;10050;55.492;13.506;2023-08-07T03:48:49;14.40;99.90
19781;DHT22;10050;55.492;13.506;2023-08-07T03:51:17;14.50;99.90
19781;DHT22;10050;55.492;13.506;2023-08-07T03:53:53;14.50;99.90
19781;DHT22;10050;55.492;13.506;2023-08-07T03:56:37;14.50;99.90
19781;DHT22;10050;55.492;13.506;2023-08-07T03:59:06;14.50;99.90
19781;DHT22;10050;55.492;13.506;2023-08-07T04:01:32;14.50;99.90
19781;DHT22;10050;55.492;13.506;2023-08-07T04:03:59;14.50;99.90
19781;DHT22;10050;55.492;13.506;2023-08-07T04:06:26;14.50;99.90
19781;DHT22;10050;55.492;13.506;2023-08-07T04:08:52;14.50;99.90
19781;DHT22;10050;55.492;13.506;2023-08-07T04:11:19;14.50;99.90
19781;DHT22;10050;55.492;13.506;2023-08-07T04:13:47;14.50;99.90
19781;DHT22;10050;55.492;13.506;2023-08-07T04:16:15;14.50;99.90
19781;DHT22;10050;55.492;13.506;2023-08-07T04:18:42;14.50;99.90
19781;DHT22;10050;55.492;13.506;2023-08-07T04:21:08;14.50;99.90
19781;DHT22;10050;55.492;13.506;2023-08-07T04:23:33;14.50;99.90
19781;DHT22;10050;55.492;13.506;2023-08-07T04:25:59;14.50;99.90
19781;DHT22;10050;55.492;13.506;2023-08-07T04:28:27;14.50;99.90
19781;DHT22;10050;55.492;13.506;2023-08-07T04:30:53;14.50;99.90
19781;DHT22;10050;55.492;13.506;2023-08-07T04:33:22;14.50;99.90
19781;DHT22;10050;55.492;13.506;2023-08-07T04:35:48;14.50;99.90
19781;DHT22;10050;55.492;13.506;2023-08-07T04:38:17;14.60;99.90
19781;DHT22;10050;55.492;13.506;2023-08-07T04:40:50;14.60;99.90
19781;DHT22;10050;55.492;13.506;2023-08-07T04:43:17;14.60;99.90
19781;DHT22;10050;55.492;13.506;2023-08-07T04:45:49;14.60;99.90
19781;DHT22;10050;55.492;13.506;2023-08-07T04:48:15;14.60;99.90
19781;DHT22;10050;55.492;13.506;2023-08-07T04:50:52;14.60;99.90
19781;DHT22;10050;55.492;13.506;2023-08-07T04:53:20;14.70;99.90
19781;DHT22;10050;55.492;13.506;2023-08-07T04:55:55;14.70;99.90
19781;DHT22;10050;55.492;13.506;2023-08-07T04:58:24;14.70;99.90
19781;DHT22;10050;55.492;13.506;2023-08-07T05:00:56;14.70;99.90
19781;DHT22;10050;55.492;13.506;2023-08-07T05:03:25;14.70;99.90
19781;DHT22;10050;55.492;13.506;2023-08-07T05:05:58;14.80;99.90
19781;DHT22;10050;55.492;13.506;2023-08-07T05:08:25;14.80;99.90
19781;DHT22;10050;55.492;13.506;2023-08-07T05:10:51;14.80;99.90
19781;DHT22;10050;55.492;13.506;2023-08-07T05:13:16;14.80;99.90
19781;DHT22;10050;55.492;13.506;2023-08-07T05:15:43;14.80;99.90
19781;DHT22;10050;55.492;13.506;2023-08-07T05:18:09;14.80;99.90
19781;DHT22;10050;55.492;13.506;2023-08-07T05:20:35;14.80;99.90
19781;DHT22;10050;55.492;13.506;2023-08-07T05:23:00;14.80;99.90
19781;DHT22;10050;55.492;13.506;2023-08-07T05:25:26;14.80;99.90
19781;DHT22;10050;55.492;13.506;2023-08-07T05:27:52;14.80;99.90
19781;DHT22;10050;55.492;13.506;2023-08-07T05:30:21;14.80;99.90
19781;DHT22;10050;55.492;13.506;2023-08-07T05:32:46;14.80;99.90
19781;DHT22;10050;55.492;13.506;2023-08-07T05:35:12;14.90;99.90
19781;DHT22;10050;55.492;13.506;2023-08-07T05:37:38;14.80;99.90
19781;DHT22;10050;55.492;13.506;2023-08-07T05:40:05;14.80;99.90
19781;DHT22;10050;55.492;13.506;2023-08-07T05:42:31;14.80;99.90
19781;DHT22;10050;55.492;13.506;2023-08-07T05:44:58;14.80;99.90
19781;DHT22;10050;55.492;13.506;2023-08-07T05:47:24;14.90;99.90
19781;DHT22;10050;55.492;13.506;2023-08-07T05:49:50;14.90;99.90
19781;DHT22;10050;55.492;13.506;2023-08-07T05:52:18;14.90;99.90
19781;DHT22;10050;55.492;13.506;2023-08-07T05:54:44;14.90;99.90
19781;DHT22;10050;55.492;13.506;2023-08-07T05:57:10;14.90;99.90
19781;DHT22;10050;55.492;13.506;2023-08-07T05:59:37;14.90;99.90
19781;DHT22;10050;55.492;13.506;2023-08-07T06:02:07;14.90;99.90
19781;DHT22;10050;55.492;13.506;2023-08-07T06:04:34;14.90;99.90
19781;DHT22;10050;55.492;13.506;2023-08-07T06:07:00;14.90;99.90
19781;DHT22;10050;55.492;13.506;2023-08-07T06:09:26;14.90;99.90
19781;DHT22;10050;55.492;13.506;2023-08-07T06:11:52;14.90;99.90
19781;DHT22;10050;55.492;13.506;2023-08-07T06:14:20;14.90;99.90
19781;DHT22;10050;55.492;13.506;2023-08-07T06:16:47;14.90;99.90
19781;DHT22;10050;55.492;13.506;2023-08-07T06:19:13;15.00;99.90
19781;DHT22;10050;55.492;13.506;2023-08-07T06:21:38;15.00;99.90
19781;DHT22;10050;55.492;13.506;2023-08-07T06:24:05;15.00;99.90
19781;DHT22;10050;55.492;13.506;2023-08-07T06:26:36;15.00;99.90
19781;DHT22;10050;55.492;13.506;2023-08-07T06:29:02;15.10;99.90
19781;DHT22;10050;55.492;13.506;2023-08-07T06:31:28;15.10;99.90
19781;DHT22;10050;55.492;13.506;2023-08-07T06:33:54;15.10;99.90
19781;DHT22;10050;55.492;13.506;2023-08-07T06:36:21;15.10;99.90
19781;DHT22;10050;55.492;13.506;2023-08-07T06:38:47;15.10;99.90
19781;DHT22;10050;55.492;13.506;2023-08-07T06:41:13;15.20;99.90
19781;DHT22;10050;55.492;13.506;2023-08-07T06:43:39;15.20;99.90
19781;DHT22;10050;55.492;13.506;2023-08-07T06:46:04;15.20;99.90
19781;DHT22;10050;55.492;13.506;2023-08-07T06:48:31;15.20;99.90
19781;DHT22;10050;55.492;13.506;2023-08-07T06:50:58;15.20;99.90
19781;DHT22;10050;55.492;13.506;2023-08-07T06:53:23;15.20;99.90
19781;DHT22;10050;55.492;13.506;2023-08-07T06:55:49;15.20;99.90
19781;DHT22;10050;55.492;13.506;2023-08-07T06:58:15;15.20;99.90
19781;DHT22;10050;55.492;13.506;2023-08-07T07:00:40;15.20;99.90
19781;DHT22;10050;55.492;13.506;2023-08-07T07:03:06;15.20;99.90
19781;DHT22;10050;55.492;13.506;2023-08-07T07:05:33;15.20;99.90
19781;DHT22;10050;55.492;13.506;2023-08-07T07:08:01;15.20;99.90
19781;DHT22;10050;55.492;13.506;2023-08-07T07:10:28;15.20;99.90
19781;DHT22;10050;55.492;13.506;2023-08-07T07:12:54;15.20;99.90
19781;DHT22;10050;55.492;13.506;2023-08-07T07:15:20;15.20;99.90
19781;DHT22;10050;55.492;13.506;2023-08-07T07:17:47;15.20;99.90
19781;DHT22;10050;55.492;13.506;2023-08-07T07:20:14;15.20;99.90
19781;DHT22;10050;55.492;13.506;2023-08-07T07:22:46;15.30;99.90
19781;DHT22;10050;55.492;13.506;2023-08-07T07:25:13;15.30;99.90
19781;DHT22;10050;55.492;13.506;2023-08-07T07:27:41;15.30;99.90
19781;DHT22;10050;55.492;13.506;2023-08-07T07:30:09;15.30;99.90
19781;DHT22;10050;55.492;13.506;2023-08-07T07:32:35;15.30;99.90
19781;DHT22;10050;55.492;13.506;2023-08-07T07:35:02;15.30;99.90
19781;DHT22;10050;55.492;13.506;2023-08-07T07:37:30;15.40;99.90
19781;DHT22;10050;55.492;13.506;2023-08-07T07:39:56;15.40;99.90
19781;DHT22;10050;55.492;13.506;2023-08-07T07:42:24;15.40;99.90
19781;DHT22;10050;55.492;13.506;2023-08-07T07:44:49;15.40;99.90
19781;DHT22;10050;55.492;13.506;2023-08-07T07:47:16;15.40;99.90
19781;DHT22;10050;55.492;13.506;2023-08-07T07:49:46;15.50;99.90
19781;DHT22;10050;55.492;13.506;2023-08-07T07:52:15;15.50;99.90
19781;DHT22;10050;55.492;13.506;2023-08-07T07:54:41;15.40;99.90
19781;DHT22;10050;55.492;13.506;2023-08-07T07:57:07;15.50;99.90
19781;DHT22;10050;55.492;13.506;2023-08-07T07:59:32;15.50;99.90
19781;DHT22;10050;55.492;13.506;2023-08-07T08:01:59;15.50;99.90
19781;DHT22;10050;55.492;13.506;2023-08-07T08:04:25;15.50;99.90
19781;DHT22;10050;55.492;13.506;2023-08-07T08:06:51;15.50;99.90
19781;DHT22;10050;55.492;13.506;2023-08-07T08:09:17;15.50;99.90
19781;DHT22;10050;55.492;13.506;2023-08-07T08:11:43;15.50;99.90
19781;DHT22;10050;55.492;13.506;2023-08-07T08:14:10;15.50;99.90
19781;DHT22;10050;55.492;13.506;2023-08-07T08:16:35;15.50;99.90
19781;DHT22;10050;55.492;13.506;2023-08-07T08:19:01;15.40;99.90
19781;DHT22;10050;55.492;13.506;2023-08-07T08:21:30;15.40;99.90
19781;DHT22;10050;55.492;13.506;2023-08-07T08:23:57;15.40;99.90
19781;DHT22;10050;55.492;13.506;2023-08-07T08:26:23;15.40;99.90
19781;DHT22;10050;55.492;13.506;2023-08-07T08:29:09;15.30;99.90
19781;DHT22;10050;55.492;13.506;2023-08-07T08:31:35;15.30;99.90
19781;DHT22;10050;55.492;13.506;2023-08-07T08:34:00;15.30;99.90
19781;DHT22;10050;55.492;13.506;2023-08-07T08:36:26;15.30;99.90
19781;DHT22;10050;55.492;13.506;2023-08-07T08:38:53;15.30;99.90
19781;DHT22;10050;55.492;13.506;2023-08-07T08:41:19;15.30;99.90
19781;DHT22;10050;55.492;13.506;2023-08-07T08:43:46;15.30;99.90
19781;DHT22;10050;55.492;13.506;2023-08-07T08:46:15;15.30;99.90
19781;DHT22;10050;55.492;13.506;2023-08-07T08:48:45;15.30;99.90
19781;DHT22;10050;55.492;13.506;2023-08-07T08:51:12;15.30;99.90
19781;DHT22;10050;55.492;13.506;2023-08-07T08:53:39;15.40;99.90
19781;DHT22;10050;55.492;13.506;2023-08-07T08:56:05;15.40;99.90
19781;DHT22;10050;55.492;13.506;2023-08-07T08:58:32;15.30;99.90
19781;DHT22;10050;55.492;13.506;2023-08-07T09:00:58;15.40;99.90
19781;DHT22;10050;55.492;13.506;2023-08-07T09:03:25;15.40;99.90
19781;DHT22;10050;55.492;13.506;2023-08-07T09:05:53;15.50;99.90
19781;DHT22;10050;55.492;13.506;2023-08-07T09:08:23;15.40;99.90
19781;DHT22;10050;55.492;13.506;2023-08-07T09:10:50;15.50;99.90
19781;DHT22;10050;55.492;13.506;2023-08-07T09:13:23;15.40;99.90
19781;DHT22;10050;55.492;13.506;2023-08-07T09:15:50;15.40;99.90
19781;DHT22;10050;55.492;13.506;2023-08-07T09:18:17;15.50;99.90
19781;DHT22;10050;55.492;13.506;2023-08-07T09:20:45;15.40;99.90
19781;DHT22;10050;55.492;13.506;2023-08-07T09:23:11;15.40;99.90
19781;DHT22;10050;55.492;13.506;2023-08-07T09:25:36;15.40;99.90
19781;DHT22;10050;55.492;13.506;2023-08-07T09:28:03;15.40;99.90
19781;DHT22;10050;55.492;13.506;2023-08-07T09:30:30;15.40;99.90
19781;DHT22;10050;55.492;13.506;2023-08-07T09:32:59;15.40;99.90
19781;DHT22;10050;55.492;13.506;2023-08-07T09:35:26;15.40;99.90
19781;DHT22;10050;55.492;13.506;2023-08-07T09:37:52;15.40;99.90
19781;DHT22;10050;55.492;13.506;2023-08-07T09:40:19;15.40;99.90
19781;DHT22;10050;55.492;13.506;2023-08-07T09:42:50;15.40;99.90
19781;DHT22;10050;55.492;13.506;2023-08-07T09:45:27;15.30;99.90
19781;DHT22;10050;55.492;13.506;2023-08-07T09:48:03;15.30;99.90
19781;DHT22;10050;55.492;13.506;2023-08-07T09:50:31;15.30;99.90
19781;DHT22;10050;55.492;13.506;2023-08-07T09:52:58;15.30;99.90
19781;DHT22;10050;55.492;13.506;2023-08-07T09:55:25;15.30;99.90
19781;DHT22;10050;55.492;13.506;2023-08-07T09:57:52;15.30;99.90
19781;DHT22;10050;55.492;13.506;2023-08-07T10:00:19;15.20;99.90
19781;DHT22;10050;55.492;13.506;2023-08-07T10:02:48;15.20;99.90
19781;DHT22;10050;55.492;13.506;2023-08-07T10:05:16;15.20;99.90
19781;DHT22;10050;55.492;13.506;2023-08-07T10:07:49;15.30;99.90
19781;DHT22;10050;55.492;13.506;2023-08-07T10:10:20;15.20;99.90
19781;DHT22;10050;55.492;13.506;2023-08-07T10:12:51;15.20;99.90
19781;DHT22;10050;55.492;13.506;2023-08-07T10:15:36;15.20;99.90
19781;DHT22;10050;55.492;13.506;2023-08-07T10:18:06;15.30;99.90
19781;DHT22;10050;55.492;13.506;2023-08-07T10:20:33;15.30;99.90
19781;DHT22;10050;55.492;13.506;2023-08-07T10:23:11;15.30;99.90
19781;DHT22;10050;55.492;13.506;2023-08-07T10:25:43;15.20;99.90
19781;DHT22;10050;55.492;13.506;2023-08-07T10:28:13;15.20;99.90
19781;DHT22;10050;55.492;13.506;2023-08-07T10:30:41;15.20;99.90
19781;DHT22;10050;55.492;13.506;2023-08-07T10:33:12;15.20;99.90
19781;DHT22;10050;55.492;13.506;2023-08-07T10:35:47;15.10;99.90
19781;DHT22;10050;55.492;13.506;2023-08-07T10:38:19;15.10;99.90
19781;DHT22;10050;55.492;13.506;2023-08-07T10:41:12;15.10;99.90
19781;DHT22;10050;55.492;13.506;2023-08-07T10:43:42;15.10;99.90
19781;DHT22;10050;55.492;13.506;2023-08-07T10:46:21;15.10;99.90
19781;DHT22;10050;55.492;13.506;2023-08-07T10:48:53;15.10;99.90
19781;DHT22;10050;55.492;13.506;2023-08-07T10:51:45;15.00;99.90
19781;DHT22;10050;55.492;13.506;2023-08-07T10:54:36;14.90;99.90
19781;DHT22;10050;55.492;13.506;2023-08-07T10:57:15;14.90;99.90
19781;DHT22;10050;55.492;13.506;2023-08-07T11:02:30;14.90;99.90
19781;DHT22;10050;55.492;13.506;2023-08-07T11:04:58;15.00;99.90
19781;DHT22;10050;55.492;13.506;2023-08-07T11:07:29;15.00;99.90
19781;DHT22;10050;55.492;13.506;2023-08-07T11:09:56;15.10;99.90
19781;DHT22;10050;55.492;13.506;2023-08-07T11:12:27;15.20;99.90
19781;DHT22;10050;55.492;13.506;2023-08-07T11:14:58;15.20;99.90
19781;DHT22;10050;55.492;13.506;2023-08-07T11:17:29;15.20;99.90
19781;DHT22;10050;55.492;13.506;2023-08-07T11:20:11;15.10;99.90
19781;DHT22;10050;55.492;13.506;2023-08-07T11:22:37;15.10;99.90
19781;DHT22;10050;55.492;13.506;2023-08-07T11:25:03;15.20;99.90
19781;DHT22;10050;55.492;13.506;2023-08-07T11:27:30;15.20;99.90
19781;DHT22;10050;55.492;13.506;2023-08-07T11:29:55;15.20;99.90
19781;DHT22;10050;55.492;13.506;2023-08-07T11:32:21;15.10;99.90
19781;DHT22;10050;55.492;13.506;2023-08-07T11:34:50;15.10;99.90
19781;DHT22;10050;55.492;13.506;2023-08-07T11:37:17;15.00;99.90
19781;DHT22;10050;55.492;13.506;2023-08-07T11:39:44;15.10;99.90
19781;DHT22;10050;55.492;13.506;2023-08-07T11:42:10;15.10;99.90
19781;DHT22;10050;55.492;13.506;2023-08-07T11:44:35;15.10;99.90
19781;DHT22;10050;55.492;13.506;2023-08-07T11:47:02;15.00;99.90
19781;DHT22;10050;55.492;13.506;2023-08-07T11:49:28;15.10;99.90
19781;DHT22;10050;55.492;13.506;2023-08-07T11:51:54;15.10;99.90
19781;DHT22;10050;55.492;13.506;2023-08-07T11:54:21;15.10;99.90
19781;DHT22;10050;55.492;13.506;2023-08-07T11:56:47;15.10;99.90
19781;DHT22;10050;55.492;13.506;2023-08-07T11:59:16;15.10;99.90
19781;DHT22;10050;55.492;13.506;2023-08-07T12:01:45;15.10;99.90
19781;DHT22;10050;55.492;13.506;2023-08-07T12:04:14;15.00;99.90
19781;DHT22;10050;55.492;13.506;2023-08-07T12:06:52;15.00;99.90
19781;DHT22;10050;55.492;13.506;2023-08-07T12:09:19;15.10;99.90
19781;DHT22;10050;55.492;13.506;2023-08-07T12:11:44;15.10;99.90
19781;DHT22;10050;55.492;13.506;2023-08-07T12:14:13;15.10;99.90
19781;DHT22;10050;55.492;13.506;2023-08-07T12:16:44;15.20;99.90
19781;DHT22;10050;55.492;13.506;2023-08-07T12:19:13;15.30;99.90
19781;DHT22;10050;55.492;13.506;2023-08-07T12:21:40;15.30;99.90
19781;DHT22;10050;55.492;13.506;2023-08-07T12:24:07;15.20;99.90
19781;DHT22;10050;55.492;13.506;2023-08-07T12:26:43;15.20;99.90
19781;DHT22;10050;55.492;13.506;2023-08-07T12:29:12;15.30;99.90
19781;DHT22;10050;55.492;13.506;2023-08-07T12:31:38;15.30;99.90
19781;DHT22;10050;55.492;13.506;2023-08-07T12:34:03;15.30;99.90
19781;DHT22;10050;55.492;13.506;2023-08-07T12:36:30;15.30;99.90
19781;DHT22;10050;55.492;13.506;2023-08-07T12:38:58;15.20;99.90
19781;DHT22;10050;55.492;13.506;2023-08-07T12:41:27;15.20;99.90
19781;DHT22;10050;55.492;13.506;2023-08-07T12:43:53;15.20;99.90
19781;DHT22;10050;55.492;13.506;2023-08-07T12:46:47;15.20;99.90
19781;DHT22;10050;55.492;13.506;2023-08-07T12:49:23;15.20;99.90
19781;DHT22;10050;55.492;13.506;2023-08-07T12:51:50;15.20;99.90
19781;DHT22;10050;55.492;13.506;2023-08-07T12:54:23;15.30;99.90
19781;DHT22;10050;55.492;13.506;2023-08-07T12:56:49;15.30;99.90
19781;DHT22;10050;55.492;13.506;2023-08-07T12:59:18;15.30;99.90
19781;DHT22;10050;55.492;13.506;2023-08-07T13:01:47;15.30;99.90
19781;DHT22;10050;55.492;13.506;2023-08-07T13:04:12;15.40;99.90
19781;DHT22;10050;55.492;13.506;2023-08-07T13:06:40;15.50;99.90
19781;DHT22;10050;55.492;13.506;2023-08-07T13:09:08;15.50;99.90
19781;DHT22;10050;55.492;13.506;2023-08-07T13:11:35;15.60;99.90
19781;DHT22;10050;55.492;13.506;2023-08-07T13:14:02;15.50;99.90
19781;DHT22;10050;55.492;13.506;2023-08-07T13:16:29;15.50;99.90
19781;DHT22;10050;55.492;13.506;2023-08-07T13:18:54;15.60;99.90
19781;DHT22;10050;55.492;13.506;2023-08-07T13:21:22;15.50;99.90
19781;DHT22;10050;55.492;13.506;2023-08-07T13:23:48;15.50;99.90
19781;DHT22;10050;55.492;13.506;2023-08-07T13:26:14;15.50;99.90
19781;DHT22;10050;55.492;13.506;2023-08-07T13:28:43;15.50;99.90
19781;DHT22;10050;55.492;13.506;2023-08-07T13:31:12;15.60;99.90
19781;DHT22;10050;55.492;13.506;2023-08-07T13:33:39;15.60;99.90
19781;DHT22;10050;55.492;13.506;2023-08-07T13:36:05;15.60;99.90
19781;DHT22;10050;55.492;13.506;2023-08-07T13:38:34;15.70;99.90
19781;DHT22;10050;55.492;13.506;2023-08-07T13:41:02;15.70;99.90
19781;DHT22;10050;55.492;13.506;2023-08-07T13:43:28;15.70;99.90
19781;DHT22;10050;55.492;13.506;2023-08-07T13:45:55;15.70;99.90
19781;DHT22;10050;55.492;13.506;2023-08-07T13:48:21;15.70;99.90
19781;DHT22;10050;55.492;13.506;2023-08-07T13:50:53;15.70;99.90
19781;DHT22;10050;55.492;13.506;2023-08-07T13:53:22;15.80;99.90
19781;DHT22;10050;55.492;13.506;2023-08-07T13:55:54;15.80;99.90
19781;DHT22;10050;55.492;13.506;2023-08-07T13:58:20;15.80;99.90
19781;DHT22;10050;55.492;13.506;2023-08-07T14:00:47;15.80;99.90
19781;DHT22;10050;55.492;13.506;2023-08-07T14:03:13;15.70;99.90
19781;DHT22;10050;55.492;13.506;2023-08-07T14:05:43;15.70;99.90
19781;DHT22;10050;55.492;13.506;2023-08-07T14:08:10;15.80;99.90
19781;DHT22;10050;55.492;13.506;2023-08-07T14:10:39;15.90;99.90
19781;DHT22;10050;55.492;13.506;2023-08-07T14:13:12;15.90;99.90
19781;DHT22;10050;55.492;13.506;2023-08-07T14:15:57;15.90;99.90
19781;DHT22;10050;55.492;13.506;2023-08-07T14:18:30;15.90;99.90
19781;DHT22;10050;55.492;13.506;2023-08-07T14:21:03;15.90;99.90
19781;DHT22;10050;55.492;13.506;2023-08-07T14:23:32;16.00;99.90
19781;DHT22;10050;55.492;13.506;2023-08-07T14:26:00;16.00;99.90
19781;DHT22;10050;55.492;13.506;2023-08-07T14:28:31;16.00;99.90
19781;DHT22;10050;55.492;13.506;2023-08-07T14:31:06;16.00;99.90
19781;DHT22;10050;55.492;13.506;2023-08-07T14:33:37;15.90;99.90
19781;DHT22;10050;55.492;13.506;2023-08-07T14:36:09;15.90;99.90
19781;DHT22;10050;55.492;13.506;2023-08-07T14:38:41;15.80;99.90
19781;DHT22;10050;55.492;13.506;2023-08-07T14:41:10;15.70;99.90
19781;DHT22;10050;55.492;13.506;2023-08-07T14:43:37;15.70;99.90
19781;DHT22;10050;55.492;13.506;2023-08-07T14:49:04;15.60;99.90
19781;DHT22;10050;55.492;13.506;2023-08-07T14:51:32;15.60;99.90
19781;DHT22;10050;55.492;13.506;2023-08-07T14:54:01;15.60;99.90
19781;DHT22;10050;55.492;13.506;2023-08-07T14:56:29;15.50;99.90
19781;DHT22;10050;55.492;13.506;2023-08-07T14:58:55;15.50;99.90
19781;DHT22;10050;55.492;13.506;2023-08-07T15:01:40;15.50;99.90
19781;DHT22;10050;55.492;13.506;2023-08-07T15:04:06;15.50;99.90
19781;DHT22;10050;55.492;13.506;2023-08-07T15:06:38;15.40;99.90
19781;DHT22;10050;55.492;13.506;2023-08-07T15:09:04;15.40;99.90
19781;DHT22;10050;55.492;13.506;2023-08-07T15:11:35;15.40;99.90
19781;DHT22;10050;55.492;13.506;2023-08-07T15:14:21;15.40;99.90
19781;DHT22;10050;55.492;13.506;2023-08-07T15:16:49;15.30;99.90
19781;DHT22;10050;55.492;13.506;2023-08-07T15:19:17;15.30;99.90
19781;DHT22;10050;55.492;13.506;2023-08-07T15:21:45;15.30;99.90
19781;DHT22;10050;55.492;13.506;2023-08-07T15:24:11;15.30;99.90
19781;DHT22;10050;55.492;13.506;2023-08-07T15:33:02;15.20;99.90
19781;DHT22;10050;55.492;13.506;2023-08-07T15:35:43;15.20;99.90
19781;DHT22;10050;55.492;13.506;2023-08-07T15:38:54;15.30;99.90
19781;DHT22;10050;55.492;13.506;2023-08-07T15:41:36;15.30;99.90